Time;durP1;ratioP1;P1;durP2;ratioP2;P2;SDS_P1;SDS_P2;PMS_P1;PMS_P2;Temp;Humidity;BMP_temperature;BMP_pressure;BME280_temperature;BME280_humidity;BME280_pressure;Samples;Min_cycle;Max_cycle;Signal;HPM_P1;HPM_P2
2024/02/14 00:03:33;;;;;;;5.90;2.90;;;;;8.90;100893.00;;;;10386511;28;20367;-80
2024/02/14 00:08:34;;;;;;;4.00;3.17;;;;;8.90;100893.00;;;;10399953;28;20225;-80
2024/02/14 00:13:35;;;;;;;7.23;3.17;;;;;8.90;100903.00;;;;10397211;28;20222;-81
2024/02/14 00:18:36;;;;;;;5.67;3.50;;;;;9.00;100885.00;;;;10393011;28;20248;-80
2024/02/14 00:23:38;;;;;;;5.37;3.43;;;;;9.00;100898.00;;;;10366846;28;20346;-80
2024/02/14 00:28:39;;;;;;;4.97;2.90;;;;;9.00;100892.00;;;;10366545;28;20217;-85
2024/02/14 00:33:41;;;;;;;5.70;3.43;;;;;9.00;100896.00;;;;10387755;28;20255;-87
2024/02/14 00:38:42;;;;;;;7.53;3.70;;;;;9.00;100893.00;;;;10454599;28;20215;-83
2024/02/14 00:43:43;;;;;;;5.00;2.70;;;;;9.00;100896.00;;;;10420589;28;20307;-86
2024/02/14 00:48:44;;;;;;;5.03;3.33;;;;;9.10;100897.00;;;;10409654;28;20249;-86
2024/02/14 00:53:46;;;;;;;4.27;3.50;;;;;9.20;100902.00;;;;10391152;28;20672;-85
2024/02/14 00:58:47;;;;;;;5.77;3.17;;;;;9.20;100905.00;;;;10422716;28;20220;-87
2024/02/14 01:03:48;;;;;;;4.67;3.13;;;;;9.20;100910.00;;;;10397489;28;20305;-84
2024/02/14 01:08:50;;;;;;;6.20;3.30;;;;;9.30;100913.00;;;;10397258;28;22106;-84
2024/02/14 01:13:51;;;;;;;4.33;3.33;;;;;9.30;100928.00;;;;10407928;28;20578;-87
2024/02/14 01:18:52;;;;;;;5.40;3.27;;;;;9.30;100921.00;;;;10402373;28;20694;-85
2024/02/14 01:23:54;;;;;;;10.90;4.13;;;;;9.30;100933.00;;;;10403156;28;20739;-85
2024/02/14 01:28:55;;;;;;;6.10;3.70;;;;;9.30;100935.00;;;;10385117;28;20772;-85
2024/02/14 01:33:57;;;;;;;8.63;4.10;;;;;9.30;100937.00;;;;10412383;28;20269;-86
2024/02/14 01:38:58;;;;;;;6.70;4.17;;;;;9.20;100942.00;;;;10404820;28;20217;-81
2024/02/14 01:44:00;;;;;;;9.47;4.53;;;;;9.20;100939.00;;;;10398392;28;20283;-81
2024/02/14 01:49:02;;;;;;;4.30;3.57;;;;;9.20;100942.00;;;;10395508;28;20253;-80
2024/02/14 01:54:04;;;;;;;7.07;4.30;;;;;9.20;100945.00;;;;10396584;28;20218;-81
2024/02/14 01:59:07;;;;;;;6.00;4.00;;;;;9.10;100952.00;;;;10395199;28;20309;-80
2024/02/14 02:04:08;;;;;;;6.63;4.57;;;;;9.20;100953.00;;;;10388159;28;20218;-80
2024/02/14 02:09:10;;;;;;;4.07;3.43;;;;;9.20;100944.00;;;;10379064;28;20218;-81
2024/02/14 02:14:12;;;;;;;7.30;4.47;;;;;9.20;100937.00;;;;10412265;28;20214;-80
2024/02/14 02:19:34;;;;;;;6.13;4.17;;;;;9.20;100927.00;;;;10392685;28;20233;-80
2024/02/14 02:24:55;;;;;;;6.37;4.67;;;;;9.10;100935.00;;;;10403004;28;20318;-81
2024/02/14 02:29:56;;;;;;;7.43;5.20;;;;;9.10;100943.00;;;;10395452;28;20276;-80
2024/02/14 02:34:58;;;;;;;8.23;4.70;;;;;9.20;100953.00;;;;10406055;28;20705;-80
2024/02/14 02:39:59;;;;;;;9.53;4.67;;;;;9.20;100954.00;;;;10403261;28;20223;-81
2024/02/14 02:45:35;;;;;;;7.00;4.97;;;;;9.20;100948.00;;;;10402709;28;20228;-78
2024/02/14 02:50:57;;;;;;;9.63;5.13;;;;;9.30;100953.00;;;;10421165;28;20237;-78
2024/02/14 02:56:16;;;;;;;7.43;5.17;;;;;9.20;100954.00;;;;10418329;28;20232;-77
2024/02/14 03:01:18;;;;;;;9.93;5.07;;;;;9.20;100952.00;;;;10413273;28;20497;-77
2024/02/14 03:06:39;;;;;;;9.40;5.63;;;;;9.20;100965.00;;;;10427734;28;20222;-78
2024/02/14 03:11:56;;;;;;;8.20;4.67;;;;;9.10;100955.00;;;;10385429;28;20237;-77
2024/02/14 03:17:17;;;;;;;12.80;6.30;;;;;9.20;100974.00;;;;10407050;28;20222;-79
2024/02/14 03:22:18;;;;;;;10.43;6.07;;;;;9.20;100978.00;;;;10409899;28;20230;-79
2024/02/14 03:27:23;;;;;;;12.50;6.43;;;;;9.10;100961.00;;;;10395474;28;20242;-78
2024/02/14 03:32:26;;;;;;;9.10;5.93;;;;;9.10;100966.00;;;;10407358;28;20230;-78
2024/02/14 03:37:27;;;;;;;9.83;6.30;;;;;9.10;100975.00;;;;10378481;28;20222;-78
2024/02/14 03:42:28;;;;;;;8.30;6.00;;;;;9.10;100970.00;;;;10389688;28;20256;-77
2024/02/14 03:47:31;;;;;;;7.47;6.13;;;;;9.10;100978.00;;;;10394964;28;20222;-77
2024/02/14 03:52:32;;;;;;;11.23;6.60;;;;;9.20;100973.00;;;;10384797;28;20759;-78
2024/02/14 03:57:38;;;;;;;13.80;7.23;;;;;9.20;100974.00;;;;10375482;28;20287;-77
2024/02/14 04:02:39;;;;;;;9.17;6.53;;;;;9.20;100977.00;;;;10408653;28;20261;-77
2024/02/14 04:07:44;;;;;;;12.00;7.00;;;;;9.20;100988.00;;;;10392186;28;20223;-78
2024/02/14 04:12:45;;;;;;;10.23;7.40;;;;;9.10;100985.00;;;;10378753;28;20854;-78
2024/02/14 04:17:47;;;;;;;10.07;6.87;;;;;9.20;100999.00;;;;10404913;28;20310;-78
2024/02/14 04:22:48;;;;;;;11.60;6.37;;;;;9.20;100997.00;;;;10387175;28;20221;-78
2024/02/14 04:27:49;;;;;;;10.97;7.23;;;;;9.30;100985.00;;;;10384515;28;20252;-78
2024/02/14 04:32:51;;;;;;;9.47;6.80;;;;;9.40;100991.00;;;;10381255;28;20220;-77
2024/02/14 04:37:52;;;;;;;11.03;6.90;;;;;9.40;101004.00;;;;10391123;28;20218;-77
2024/02/14 04:42:54;;;;;;;10.97;6.30;;;;;9.40;100994.00;;;;10392488;28;20230;-77
2024/02/14 04:47:55;;;;;;;9.97;7.00;;;;;9.40;100976.00;;;;10395267;28;20211;-77
2024/02/14 04:52:56;;;;;;;12.47;8.17;;;;;9.50;100992.00;;;;10399265;28;20307;-78
2024/02/14 04:57:58;;;;;;;11.00;7.87;;;;;9.50;100996.00;;;;10386882;28;20222;-78
2024/02/14 05:02:59;;;;;;;10.63;7.23;;;;;9.50;100994.00;;;;10371108;28;20218;-78
2024/02/14 05:08:04;;;;;;;13.00;8.17;;;;;9.50;101003.00;;;;10400001;28;20326;-86
2024/02/14 05:13:05;;;;;;;11.53;8.43;;;;;9.50;100997.00;;;;10377775;28;20313;-86
2024/02/14 05:18:07;;;;;;;16.57;7.67;;;;;9.50;100997.00;;;;10409243;28;20225;-88
2024/02/14 05:23:11;;;;;;;11.73;9.10;;;;;9.50;101005.00;;;;10383033;28;20275;-86
2024/02/14 05:28:13;;;;;;;12.03;7.53;;;;;9.50;100991.00;;;;10382620;28;20225;-86
2024/02/14 05:33:15;;;;;;;11.87;9.10;;;;;9.50;100990.00;;;;10428672;28;20218;-86
2024/02/14 05:38:19;;;;;;;12.47;8.97;;;;;9.60;101000.00;;;;10408993;28;20217;-88
2024/02/14 05:43:21;;;;;;;12.67;8.40;;;;;9.60;100989.00;;;;10378712;28;20251;-85
2024/02/14 05:48:22;;;;;;;12.10;8.10;;;;;9.70;100991.00;;;;10385064;28;20211;-86
2024/02/14 05:53:24;;;;;;;12.60;7.97;;;;;9.70;100995.00;;;;10405375;28;20246;-85
2024/02/14 05:58:27;;;;;;;13.13;8.27;;;;;9.70;101002.00;;;;10417448;28;20236;-87
2024/02/14 06:03:28;;;;;;;12.10;7.03;;;;;9.70;101002.00;;;;10409312;28;20637;-86
2024/02/14 06:08:29;;;;;;;10.80;8.27;;;;;9.70;101008.00;;;;10412222;28;20281;-84
2024/02/14 06:13:30;;;;;;;17.87;8.93;;;;;9.80;101019.00;;;;10438846;28;20234;-86
2024/02/14 06:18:32;;;;;;;16.07;8.17;;;;;9.80;101024.00;;;;10405453;28;20300;-75
2024/02/14 06:23:34;;;;;;;13.77;8.63;;;;;9.90;101021.00;;;;10392167;28;20660;-76
2024/02/14 06:28:35;;;;;;;11.73;8.10;;;;;9.90;101014.00;;;;10409526;28;20228;-75
2024/02/14 06:33:36;;;;;;;12.37;7.63;;;;;10.00;101013.00;;;;10373668;28;20226;-76
2024/02/14 06:38:37;;;;;;;13.50;9.10;;;;;10.00;101017.00;;;;10399641;28;20246;-76
2024/02/14 06:43:39;;;;;;;14.73;8.90;;;;;10.00;101026.00;;;;10385207;28;20222;-76
2024/02/14 06:48:40;;;;;;;11.00;8.50;;;;;10.00;101022.00;;;;10374000;28;20242;-75
2024/02/14 06:53:41;;;;;;;17.77;8.63;;;;;10.00;101023.00;;;;10394547;28;20220;-78
2024/02/14 06:58:43;;;;;;;13.93;8.07;;;;;10.00;101041.00;;;;10389727;28;20213;-75
2024/02/14 07:03:46;;;;;;;13.60;8.30;;;;;10.00;101038.00;;;;10392351;28;20230;-75
2024/02/14 07:08:47;;;;;;;12.07;7.97;;;;;10.10;101039.00;;;;10401307;28;20283;-76
2024/02/14 07:13:48;;;;;;;15.33;8.47;;;;;10.10;101043.00;;;;10407255;28;20234;-75
2024/02/14 07:18:50;;;;;;;13.93;8.57;;;;;10.20;101063.00;;;;10380210;28;20292;-75
2024/02/14 07:23:53;;;;;;;19.10;9.47;;;;;10.20;101051.00;;;;10376563;28;20222;-76
2024/02/14 07:28:54;;;;;;;15.43;9.37;;;;;10.30;101060.00;;;;10375783;28;20219;-84
2024/02/14 07:33:55;;;;;;;15.50;8.53;;;;;10.30;101055.00;;;;10392024;28;20771;-83
2024/02/14 07:39:00;;;;;;;18.47;10.37;;;;;10.40;101048.00;;;;10392536;28;20238;-86
2024/02/14 07:44:02;;;;;;;14.60;9.37;;;;;10.50;101060.00;;;;10378251;28;20210;-85
2024/02/14 07:49:04;;;;;;;87.47;17.97;;;;;10.60;101057.00;;;;10383427;28;20289;-87
2024/02/14 07:54:05;;;;;;;17.90;8.73;;;;;10.80;101055.00;;;;10395423;28;20921;-86
2024/02/14 07:59:06;;;;;;;20.27;10.07;;;;;10.90;101065.00;;;;10395217;28;20222;-86
2024/02/14 08:04:08;;;;;;;13.03;9.20;;;;;11.10;101057.00;;;;10399158;28;20875;-87
2024/02/14 08:09:09;;;;;;;15.00;8.47;;;;;11.10;101070.00;;;;10400618;28;20222;-87
2024/02/14 08:14:12;;;;;;;11.93;8.27;;;;;11.00;101076.00;;;;10376332;28;20226;-87
2024/02/14 08:19:13;;;;;;;14.33;8.50;;;;;10.90;101089.00;;;;10387652;28;20305;-85
2024/02/14 08:24:15;;;;;;;14.83;8.93;;;;;10.70;101086.00;;;;10393611;28;21231;-87
2024/02/14 08:29:16;;;;;;;15.13;8.50;;;;;10.70;101076.00;;;;10378158;28;20225;-89
2024/02/14 08:34:19;;;;;;;17.40;8.27;;;;;10.80;101086.00;;;;10391498;28;20213;-86
2024/02/14 08:39:20;;;;;;;14.20;8.70;;;;;11.00;101083.00;;;;10401254;28;20252;-86
2024/02/14 08:44:24;;;;;;;14.00;7.17;;;;;11.10;101084.00;;;;10394740;28;20225;-84
2024/02/14 08:49:26;;;;;;;12.43;8.03;;;;;11.10;101099.00;;;;10387964;28;20298;-88
2024/02/14 08:54:28;;;;;;;14.40;8.47;;;;;11.10;101109.00;;;;10411413;28;20203;-86
2024/02/14 08:59:29;;;;;;;12.73;8.03;;;;;11.10;101110.00;;;;10419036;28;20226;-86
2024/02/14 09:04:31;;;;;;;12.77;9.97;;;;;11.10;101105.00;;;;10403144;28;20247;-85
2024/02/14 09:09:32;;;;;;;15.30;10.20;;;;;11.10;101116.00;;;;10404761;28;20219;-86
2024/02/14 09:14:33;;;;;;;17.30;10.70;;;;;11.30;101105.00;;;;10393544;28;20483;-85
2024/02/14 09:19:34;;;;;;;18.60;12.20;;;;;11.30;101101.00;;;;10411954;28;20308;-85
2024/02/14 09:24:36;;;;;;;14.53;11.10;;;;;11.30;101110.00;;;;10417747;28;20221;-87
2024/02/14 09:29:38;;;;;;;13.40;9.73;;;;;11.30;101111.00;;;;10397020;28;20221;-87
2024/02/14 09:34:39;;;;;;;16.20;9.97;;;;;11.40;101103.00;;;;10402552;28;20217;-86
2024/02/14 09:39:43;;;;;;;14.47;8.77;;;;;11.50;101103.00;;;;10379771;28;20297;-86
2024/02/14 09:44:46;;;;;;;12.70;9.27;;;;;11.50;101104.00;;;;10383010;28;20799;-82
2024/02/14 09:49:48;;;;;;;11.90;8.93;;;;;11.50;101108.00;;;;10415807;28;20226;-79
2024/02/14 09:54:52;;;;;;;19.00;8.87;;;;;11.50;101114.00;;;;10410961;28;20283;-81
2024/02/14 09:59:56;;;;;;;11.23;8.10;;;;;11.40;101112.00;;;;10406354;28;20250;-83
2024/02/14 10:04:57;;;;;;;10.10;6.73;;;;;11.40;101111.00;;;;10397896;28;20218;-82
2024/02/14 10:10:06;;;;;;;9.27;6.37;;;;;11.40;101109.00;;;;10384678;28;20226;-83
2024/02/14 10:15:08;;;;;;;9.33;7.20;;;;;11.60;101116.00;;;;10408122;28;20240;-81
2024/02/14 10:20:10;;;;;;;7.73;5.57;;;;;11.70;101115.00;;;;10407894;28;20619;-84
2024/02/14 10:25:12;;;;;;;7.17;5.70;;;;;11.80;101114.00;;;;10397426;28;20305;-81
2024/02/14 10:30:14;;;;;;;7.00;6.10;;;;;11.90;101107.00;;;;10424109;28;20220;-83
2024/02/14 10:35:16;;;;;;;5.30;4.80;;;;;12.00;101119.00;;;;10386446;28;20224;-82
2024/02/14 10:40:20;;;;;;;5.60;4.37;;;;;12.00;101112.00;;;;10396343;28;20268;-84
2024/02/14 10:45:21;;;;;;;27.03;7.87;;;;;12.10;101120.00;;;;10396974;28;20250;-82
2024/02/14 10:50:26;;;;;;;3.63;2.97;;;;;12.10;101128.00;;;;10390949;28;20214;-83
2024/02/14 10:55:30;;;;;;;5.90;2.60;;;;;12.00;101118.00;;;;10412611;28;20278;-81
2024/02/14 11:00:32;;;;;;;4.53;3.47;;;;;11.90;101129.00;;;;10379430;28;20241;-81
2024/02/14 11:05:45;;;;;;;6.35;2.80;;;;;11.90;101115.00;;;;10380484;28;20214;-80
2024/02/14 11:10:54;;;;;;;2.85;2.63;;;;;11.90;101114.00;;;;10395565;28;20745;-82
2024/02/14 11:15:59;;;;;;;4.10;3.20;;;;;12.00;101117.00;;;;10409141;28;20326;-80
2024/02/14 11:21:03;;;;;;;3.10;2.67;;;;;12.10;101112.00;;;;10395878;28;20214;-81
2024/02/14 11:26:08;;;;;;;3.92;2.78;;;;;12.10;101112.00;;;;10387857;28;20222;-81
2024/02/14 11:31:10;;;;;;;4.00;2.60;;;;;12.10;101105.00;;;;10394702;28;20240;-81
2024/02/14 11:36:14;;;;;;;4.27;2.63;;;;;12.00;101107.00;;;;10425703;28;20213;-82
2024/02/14 11:41:15;;;;;;;4.40;2.60;;;;;11.90;101105.00;;;;10394604;28;20275;-82
2024/02/14 11:46:16;;;;;;;6.37;3.07;;;;;11.90;101101.00;;;;10380182;28;20300;-81
2024/02/14 11:51:18;;;;;;;5.55;3.30;;;;;11.90;101113.00;;;;10376688;28;20253;-81
2024/02/14 11:56:22;;;;;;;4.73;3.37;;;;;11.90;101094.00;;;;10372138;28;20253;-80
2024/02/14 12:01:23;;;;;;;4.82;3.78;;;;;11.90;101100.00;;;;10401299;28;20235;-79
2024/02/14 12:06:25;;;;;;;5.40;3.37;;;;;12.00;101094.00;;;;10364898;28;20221;-82
2024/02/14 12:11:26;;;;;;;5.83;3.97;;;;;12.20;101101.00;;;;10403188;28;20232;-81
2024/02/14 12:16:27;;;;;;;5.07;3.77;;;;;12.40;101088.00;;;;10383594;28;20260;-81
2024/02/14 12:21:34;;;;;;;8.50;4.40;;;;;12.50;101095.00;;;;10380228;28;20305;-80
2024/02/14 12:26:39;;;;;;;5.88;3.88;;;;;12.60;101080.00;;;;10395701;28;20926;-79
2024/02/14 12:31:40;;;;;;;8.57;4.70;;;;;12.50;101091.00;;;;10390376;28;20218;-80
2024/02/14 12:36:41;;;;;;;13.18;4.53;;;;;12.60;101101.00;;;;10374453;28;20217;-79
2024/02/14 12:41:43;;;;;;;9.97;4.67;;;;;12.50;101096.00;;;;10383162;28;20229;-79
2024/02/14 12:46:44;;;;;;;8.60;4.93;;;;;12.50;101095.00;;;;10416165;28;20223;-79
2024/02/14 12:51:46;;;;;;;12.18;5.35;;;;;12.60;101099.00;;;;10377180;28;20237;-78
2024/02/14 12:56:47;;;;;;;10.52;4.80;;;;;12.70;101099.00;;;;10374728;28;20314;-80
2024/02/14 13:01:48;;;;;;;8.55;5.22;;;;;12.60;101094.00;;;;10378792;28;20312;-82
2024/02/14 13:06:50;;;;;;;7.22;4.63;;;;;12.50;101089.00;;;;10361584;28;20230;-81
2024/02/14 13:11:52;;;;;;;9.80;5.00;;;;;12.50;101096.00;;;;10395131;28;20219;-81
2024/02/14 13:16:53;;;;;;;7.47;4.70;;;;;12.30;101092.00;;;;10397770;28;20218;-82
2024/02/14 13:21:55;;;;;;;10.25;5.03;;;;;12.30;101090.00;;;;10397937;28;20215;-82
2024/02/14 13:26:57;;;;;;;8.40;4.40;;;;;12.30;101084.00;;;;10352793;28;20246;-82
2024/02/14 13:32:00;;;;;;;6.15;3.80;;;;;12.30;101088.00;;;;10361894;28;20239;-81
2024/02/14 13:37:02;;;;;;;6.30;3.67;;;;;12.20;101095.00;;;;10366253;28;20249;-86
2024/02/14 13:42:03;;;;;;;8.20;3.85;;;;;12.30;101085.00;;;;10364092;28;20301;-82
2024/02/14 13:47:05;;;;;;;4.97;2.83;;;;;12.30;101088.00;;;;10392392;28;20226;-80
2024/02/14 13:52:06;;;;;;;7.47;3.70;;;;;12.30;101080.00;;;;10396980;28;20229;-82
2024/02/14 13:57:07;;;;;;;4.53;3.25;;;;;12.30;101094.00;;;;10374658;28;20574;-83
2024/02/14 14:02:09;;;;;;;4.47;3.33;;;;;12.30;101084.00;;;;10371956;28;20247;-80
2024/02/14 14:07:11;;;;;;;5.72;2.90;;;;;12.30;101078.00;;;;10399967;28;20229;-80
2024/02/14 14:12:12;;;;;;;4.45;2.90;;;;;12.30;101080.00;;;;10379191;28;20596;-81
2024/02/14 14:17:13;;;;;;;6.23;2.93;;;;;12.30;101085.00;;;;10403945;28;20225;-81
2024/02/14 14:22:16;;;;;;;4.75;3.25;;;;;12.40;101086.00;;;;10438644;28;20279;-85
2024/02/14 14:27:18;;;;;;;65.15;10.43;;;;;12.50;101083.00;;;;10398623;28;20226;-82
2024/02/14 14:32:20;;;;;;;5.07;2.58;;;;;12.50;101067.00;;;;10369730;28;20218;-83
2024/02/14 14:37:22;;;;;;;4.72;3.17;;;;;12.60;101080.00;;;;10380719;28;20226;-83
2024/02/14 14:42:23;;;;;;;5.15;2.60;;;;;12.50;101073.00;;;;10383477;28;20214;-83
2024/02/14 14:47:25;;;;;;;4.13;2.97;;;;;12.60;101089.00;;;;10369838;28;21615;-83
2024/02/14 14:52:26;;;;;;;5.10;2.90;;;;;12.80;101074.00;;;;10359415;28;20238;-82
2024/02/14 14:57:27;;;;;;;8.43;4.15;;;;;13.00;101076.00;;;;10350200;28;20225;-81
2024/02/14 15:02:28;;;;;;;4.68;3.10;;;;;13.00;101086.00;;;;10367963;28;20215;-80
2024/02/14 15:07:29;;;;;;;11.50;3.70;;;;;13.10;101089.00;;;;10374198;28;20211;-81
2024/02/14 15:12:31;;;;;;;7.47;3.95;;;;;13.00;101077.00;;;;10387649;28;20254;-80
2024/02/14 15:17:32;;;;;;;4.00;2.58;;;;;13.00;101075.00;;;;10396097;28;20222;-81
2024/02/14 15:22:33;;;;;;;25.67;5.53;;;;;12.80;101073.00;;;;10403455;28;20225;-81
2024/02/14 15:27:40;;;;;;;81.85;11.77;;;;;12.70;101082.00;;;;10377096;28;20228;-80
2024/02/14 15:38:01;;;;;;;6.53;3.40;;;;;12.60;101095.00;;;;10390375;28;20219;-82
2024/02/14 15:43:03;;;;;;;4.03;2.40;;;;;12.60;101095.00;;;;10385954;28;20249;-80
2024/02/14 15:48:05;;;;;;;4.78;2.95;;;;;12.60;101082.00;;;;10373717;28;20697;-80
2024/02/14 15:53:06;;;;;;;7.13;3.22;;;;;12.50;101092.00;;;;10391986;28;20238;-80
2024/02/14 15:58:07;;;;;;;81.53;13.85;;;;;12.50;101084.00;;;;10379897;28;20226;-81
2024/02/14 16:03:11;;;;;;;14.13;3.47;;;;;12.40;101086.00;;;;10352507;28;20222;-80
2024/02/14 16:08:16;;;;;;;54.40;8.82;;;;;12.40;101091.00;;;;10356330;28;20218;-80
2024/02/14 16:13:17;;;;;;;7.90;3.50;;;;;12.40;101104.00;;;;10391222;28;21032;-82
2024/02/14 16:18:18;;;;;;;5.45;3.35;;;;;12.30;101081.00;;;;10356700;28;20860;-81
2024/02/14 16:23:19;;;;;;;8.35;3.00;;;;;12.30;101102.00;;;;10382242;28;20211;-82
2024/02/14 16:28:21;;;;;;;6.45;2.55;;;;;12.30;101093.00;;;;10366197;28;20214;-81
2024/02/14 16:33:22;;;;;;;10.40;3.30;;;;;12.30;101094.00;;;;10382297;28;20246;-81
2024/02/14 16:38:24;;;;;;;6.67;3.37;;;;;12.30;101089.00;;;;10372935;28;20234;-82
2024/02/14 16:43:26;;;;;;;4.65;3.08;;;;;12.30;101087.00;;;;10390661;28;20293;-81
2024/02/14 16:48:27;;;;;;;4.65;2.50;;;;;12.30;101082.00;;;;10410153;28;20249;-83
2024/02/14 16:53:28;;;;;;;3.97;2.78;;;;;12.20;101084.00;;;;10381025;28;20302;-81
2024/02/14 16:58:30;;;;;;;6.30;2.28;;;;;12.20;101089.00;;;;10400733;28;20221;-81
2024/02/14 17:03:31;;;;;;;5.35;2.40;;;;;12.20;101096.00;;;;10438470;28;20219;-81
2024/02/14 17:08:32;;;;;;;7.63;3.05;;;;;12.30;101091.00;;;;10420623;28;20872;-83
2024/02/14 17:13:33;;;;;;;6.80;3.40;;;;;12.20;101113.00;;;;10396502;28;20221;-82
2024/02/14 17:18:34;;;;;;;8.32;2.97;;;;;12.20;101113.00;;;;10395540;28;20348;-82
2024/02/14 17:23:36;;;;;;;11.05;3.70;;;;;12.30;101116.00;;;;10424630;28;20300;-81
2024/02/14 17:28:38;;;;;;;9.70;4.15;;;;;12.30;101126.00;;;;10400267;28;20220;-82
2024/02/14 17:33:39;;;;;;;10.15;3.67;;;;;12.30;101134.00;;;;10398605;28;20275;-81
2024/02/14 17:38:40;;;;;;;8.20;3.40;;;;;12.30;101135.00;;;;10400215;28;20210;-80
2024/02/14 17:43:41;;;;;;;10.40;3.50;;;;;12.30;101135.00;;;;10417626;28;20225;-80
2024/02/14 17:48:43;;;;;;;8.13;3.35;;;;;12.30;101139.00;;;;10404612;28;20336;-81
2024/02/14 17:53:44;;;;;;;10.05;4.10;;;;;12.30;101158.00;;;;10415661;28;20226;-82
2024/02/14 17:58:45;;;;;;;10.20;4.10;;;;;12.30;101148.00;;;;10385480;28;20218;-87
2024/02/14 18:03:46;;;;;;;7.15;3.40;;;;;12.30;101140.00;;;;10417699;28;20218;-88
2024/02/14 18:08:48;;;;;;;9.13;3.80;;;;;12.30;101154.00;;;;10421582;28;20214;-88
2024/02/14 18:13:52;;;;;;;8.45;3.55;;;;;12.40;101149.00;;;;10421790;28;20535;-88
2024/02/14 18:18:53;;;;;;;9.55;3.95;;;;;12.40;101157.00;;;;10429548;28;20202;-88
2024/02/14 18:23:55;;;;;;;14.20;4.13;;;;;12.40;101163.00;;;;10426359;28;20505;-86
2024/02/14 18:28:56;;;;;;;12.40;4.25;;;;;12.40;101164.00;;;;10424322;28;20225;-87
2024/02/14 18:33:57;;;;;;;11.00;4.97;;;;;12.40;101164.00;;;;10428885;28;20226;-87
2024/02/14 18:38:59;;;;;;;11.73;5.13;;;;;12.40;101173.00;;;;10433707;28;20210;-85
2024/02/14 18:44:03;;;;;;;13.07;5.00;;;;;12.40;101172.00;;;;10408492;28;20649;-87
2024/02/14 18:49:05;;;;;;;14.02;5.60;;;;;12.40;101184.00;;;;10447678;28;20233;-89
2024/02/14 18:54:09;;;;;;;14.60;5.70;;;;;12.40;101178.00;;;;10385402;28;20234;-88
2024/02/14 18:59:11;;;;;;;12.48;5.13;;;;;12.40;101171.00;;;;10417140;28;20624;-87
2024/02/14 19:04:12;;;;;;;14.38;5.78;;;;;12.40;101170.00;;;;10417448;28;20218;-84
2024/02/14 19:09:13;;;;;;;14.00;5.25;;;;;12.40;101172.00;;;;10424247;28;20244;-84
2024/02/14 19:14:15;;;;;;;10.50;5.35;;;;;12.40;101165.00;;;;10401502;28;20221;-84
2024/02/14 19:19:17;;;;;;;13.50;5.43;;;;;12.40;101162.00;;;;10388103;28;20262;-81
2024/02/14 19:24:18;;;;;;;13.50;5.72;;;;;12.40;101173.00;;;;10392059;28;21266;-82
2024/02/14 19:29:21;;;;;;;13.27;5.28;;;;;12.50;101169.00;;;;10400258;28;20222;-81
2024/02/14 19:34:22;;;;;;;13.18;5.35;;;;;12.40;101177.00;;;;10399850;28;20333;-80
2024/02/14 19:39:23;;;;;;;13.25;5.47;;;;;12.50;101173.00;;;;10442394;28;20221;-81
2024/02/14 19:44:25;;;;;;;11.55;5.43;;;;;12.40;101173.00;;;;10441155;28;20291;-82
2024/02/14 19:49:26;;;;;;;14.77;6.43;;;;;12.30;101179.00;;;;10400373;28;20304;-82
2024/02/14 19:54:29;;;;;;;16.07;7.93;;;;;12.20;101185.00;;;;10382810;28;20827;-82
2024/02/14 19:59:30;;;;;;;16.83;9.38;;;;;12.10;101185.00;;;;10373523;28;20267;-82
2024/02/14 20:04:31;;;;;;;20.10;9.43;;;;;12.00;101191.00;;;;10396635;28;20933;-82
2024/02/14 20:09:32;;;;;;;20.30;9.77;;;;;12.00;101185.00;;;;10395383;28;20227;-83
2024/02/14 20:14:34;;;;;;;22.40;12.00;;;;;12.00;101195.00;;;;10368185;28;20229;-81
2024/02/14 20:19:35;;;;;;;19.73;10.47;;;;;12.00;101188.00;;;;10401461;28;20222;-81
2024/02/14 20:24:37;;;;;;;21.27;11.73;;;;;12.00;101186.00;;;;10390152;28;20221;-80
2024/02/14 20:29:39;;;;;;;19.20;13.15;;;;;11.90;101177.00;;;;10372746;28;20226;-82
2024/02/14 20:34:40;;;;;;;17.17;12.40;;;;;11.90;101173.00;;;;10396497;28;20222;-81
2024/02/14 20:39:41;;;;;;;18.67;12.57;;;;;11.80;101173.00;;;;10385948;28;20569;-81
2024/02/14 20:44:43;;;;;;;13.87;11.33;;;;;11.80;101177.00;;;;10397522;28;20924;-82
2024/02/14 20:49:45;;;;;;;18.93;13.57;;;;;11.80;101178.00;;;;10375822;28;20233;-84
2024/02/14 20:54:47;;;;;;;18.00;12.60;;;;;11.80;101184.00;;;;10381296;28;20233;-82
2024/02/14 20:59:49;;;;;;;21.27;10.73;;;;;11.80;101191.00;;;;10397980;28;20229;-81
2024/02/14 21:04:50;;;;;;;19.20;12.30;;;;;11.70;101194.00;;;;10383364;28;20229;-82
2024/02/14 21:09:52;;;;;;;18.30;9.77;;;;;11.70;101197.00;;;;10392135;28;20226;-83
2024/02/14 21:14:53;;;;;;;12.77;10.07;;;;;11.70;101196.00;;;;10396038;28;20291;-83
2024/02/14 21:19:55;;;;;;;18.40;8.67;;;;;11.80;101203.00;;;;10390226;28;20232;-82
2024/02/14 21:24:56;;;;;;;13.63;7.13;;;;;11.80;101201.00;;;;10419636;28;20248;-83
2024/02/14 21:29:57;;;;;;;21.27;7.47;;;;;11.90;101208.00;;;;10399548;28;20261;-84
2024/02/14 21:34:58;;;;;;;14.63;8.67;;;;;12.00;101208.00;;;;10395747;28;20321;-81
2024/02/14 21:40:00;;;;;;;16.60;7.82;;;;;12.00;101200.00;;;;10380652;28;20221;-80
2024/02/14 21:45:02;;;;;;;15.63;8.35;;;;;12.10;101194.00;;;;10410323;28;20222;-80
2024/02/14 21:50:03;;;;;;;15.83;9.27;;;;;12.10;101196.00;;;;10417475;28;20217;-81
2024/02/14 21:55:07;;;;;;;15.00;9.30;;;;;12.10;101201.00;;;;10386620;28;20226;-80
2024/02/14 22:00:09;;;;;;;16.33;9.80;;;;;12.10;101208.00;;;;10386612;28;20219;-81
2024/02/14 22:05:13;;;;;;;16.70;9.63;;;;;12.10;101207.00;;;;10369109;28;20320;-81
2024/02/14 22:10:15;;;;;;;20.07;10.67;;;;;12.10;101200.00;;;;10383690;28;20226;-81
2024/02/14 22:15:16;;;;;;;20.20;10.57;;;;;12.10;101206.00;;;;10374207;28;20214;-81
2024/02/14 22:20:20;;;;;;;19.45;9.82;;;;;12.10;101192.00;;;;10374253;28;20685;-81
2024/02/14 22:25:21;;;;;;;22.67;9.95;;;;;12.10;101188.00;;;;10393201;28;20227;-80
2024/02/14 22:30:22;;;;;;;19.02;9.50;;;;;12.10;101193.00;;;;10384465;28;20787;-81
2024/02/14 22:35:23;;;;;;;17.25;9.35;;;;;12.10;101184.00;;;;10395800;28;20218;-80
2024/02/14 22:40:24;;;;;;;19.10;9.90;;;;;12.10;101176.00;;;;10374289;28;20852;-80
2024/02/14 22:45:26;;;;;;;19.23;9.15;;;;;12.10;101169.00;;;;10359013;28;20218;-79
2024/02/14 22:50:27;;;;;;;18.30;9.23;;;;;12.10;101169.00;;;;10369516;28;20222;-80
2024/02/14 22:55:30;;;;;;;20.52;8.60;;;;;12.10;101175.00;;;;10358782;28;20316;-79
2024/02/14 23:00:33;;;;;;;20.10;8.80;;;;;12.10;101178.00;;;;10359526;28;20294;-78
2024/02/14 23:05:35;;;;;;;19.65;8.00;;;;;12.10;101175.00;;;;10372956;28;20232;-77
2024/02/14 23:10:38;;;;;;;15.60;7.43;;;;;12.20;101180.00;;;;10371670;28;20850;-77
2024/02/14 23:15:42;;;;;;;13.93;6.70;;;;;12.20;101180.00;;;;10363656;28;21096;-78
2024/02/14 23:20:43;;;;;;;14.95;6.28;;;;;12.20;101177.00;;;;10391604;28;20507;-79
2024/02/14 23:25:46;;;;;;;17.65;6.47;;;;;12.20;101172.00;;;;10392109;28;20231;-78
2024/02/14 23:30:48;;;;;;;15.48;6.18;;;;;12.30;101169.00;;;;10374485;28;20262;-77
2024/02/14 23:35:49;;;;;;;11.20;5.47;;;;;12.30;101163.00;;;;10378727;28;20222;-79
2024/02/14 23:40:50;;;;;;;15.68;4.97;;;;;12.30;101164.00;;;;10401156;28;20218;-79
2024/02/14 23:45:51;;;;;;;16.55;5.55;;;;;12.30;101173.00;;;;10390709;28;20829;-78
2024/02/14 23:50:52;;;;;;;10.23;5.85;;;;;12.30;101171.00;;;;10385666;28;20755;-78
2024/02/14 23:55:56;;;;;;;16.55;5.70;;;;;12.30;101174.00;;;;10383589;28;20218;-80
